Time;durP1;ratioP1;P1;durP2;ratioP2;P2;SDS_P1;SDS_P2;PMS_P1;PMS_P2;Temp;Humidity;BMP_temperature;BMP_pressure;BME280_temperature;BME280_humidity;BME280_pressure;Samples;Min_cycle;Max_cycle;Signal;HPM_P1;HPM_P2
2024/02/08 00:00:54;;;;;;;27.52;15.00;;;;;;;7.25;100.00;97864.81;6204282;22;20007;-63
2024/02/08 00:03:20;;;;;;;29.08;16.80;;;;;;;7.18;100.00;97859.41;6206213;22;20016;-65
2024/02/08 00:05:45;;;;;;;25.42;15.40;;;;;;;7.11;100.00;97858.31;6203198;22;20490;-62
2024/02/08 00:08:12;;;;;;;26.67;16.67;;;;;;;7.13;100.00;97856.41;6231562;22;20007;-66
2024/02/08 00:10:37;;;;;;;24.98;16.35;;;;;;;7.11;100.00;97868.66;6231884;22;20078;-64
2024/02/08 00:13:08;;;;;;;25.85;15.50;;;;;;;6.99;100.00;97872.38;6200509;22;20567;-62
2024/02/08 00:15:34;;;;;;;28.25;15.85;;;;;;;6.75;100.00;97873.63;6233136;22;20086;-65
2024/02/08 00:18:03;;;;;;;26.40;14.60;;;;;;;6.87;100.00;97864.78;6203649;22;20012;-64
2024/02/08 00:20:31;;;;;;;25.02;14.80;;;;;;;6.94;100.00;97859.88;6207485;22;20019;-64
2024/02/08 00:22:59;;;;;;;24.67;15.40;;;;;;;6.97;100.00;97854.41;6205133;22;20012;-63
2024/02/08 00:25:24;;;;;;;26.13;15.13;;;;;;;7.06;100.00;97858.75;6206905;22;20007;-65
2024/02/08 00:27:52;;;;;;;24.83;15.18;;;;;;;7.03;100.00;97851.28;6206343;22;20443;-63
2024/02/08 00:30:18;;;;;;;29.50;15.30;;;;;;;7.08;100.00;97856.00;6231441;22;20007;-64
2024/02/08 00:32:48;;;;;;;24.58;14.93;;;;;;;7.09;100.00;97861.06;6230476;22;20098;-63
2024/02/08 00:35:19;;;;;;;23.27;14.45;;;;;;;7.06;100.00;97852.75;6203151;22;20659;-63
2024/02/08 00:37:52;;;;;;;21.23;13.93;;;;;;;6.91;100.00;97852.41;6232827;22;20612;-64
2024/02/08 00:40:18;;;;;;;19.70;12.75;;;;;;;6.78;100.00;97857.06;6228499;22;20020;-66
2024/02/08 00:42:46;;;;;;;19.85;12.63;;;;;;;6.64;100.00;97820.34;6207112;22;20087;-64
2024/02/08 00:45:24;;;;;;;21.35;13.57;;;;;;;6.77;100.00;97842.50;6203169;22;20015;-65
2024/02/08 00:47:54;;;;;;;21.77;13.27;;;;;;;6.86;100.00;97839.06;6230781;22;20314;-64
2024/02/08 00:50:21;;;;;;;19.27;12.88;;;;;;;6.93;100.00;97846.13;6206320;22;20111;-63
2024/02/08 00:52:47;;;;;;;19.13;12.68;;;;;;;7.05;100.00;97849.38;6229105;22;20042;-65
2024/02/08 00:55:16;;;;;;;19.80;12.18;;;;;;;7.11;100.00;97848.00;6204496;22;20043;-63
2024/02/08 00:57:42;;;;;;;18.98;12.02;;;;;;;7.12;100.00;97853.03;6203093;22;20384;-63
2024/02/08 01:00:08;;;;;;;19.83;12.50;;;;;;;7.01;100.00;97842.03;6203179;22;20012;-64
2024/02/08 01:02:33;;;;;;;19.65;12.23;;;;;;;7.08;100.00;97837.91;6204684;22;20115;-62
2024/02/08 01:05:01;;;;;;;19.42;12.82;;;;;;;7.20;100.00;97841.97;6206617;22;20698;-64
2024/02/08 01:07:31;;;;;;;18.33;12.57;;;;;;;7.18;100.00;97843.06;6204693;22;20377;-64
2024/02/08 01:09:59;;;;;;;;;;;;;;;7.09;100.00;97842.16;6231698;22;20272;-64
2024/02/08 01:12:31;;;;;;;19.15;12.02;;;;;;;6.84;100.00;97804.81;6231571;22;20497;-65
2024/02/08 01:15:04;;;;;;;18.23;11.63;;;;;;;7.25;100.00;97851.91;6231587;22;20011;-63
2024/02/08 01:17:29;;;;;;;17.02;12.25;;;;;;;7.09;100.00;97824.84;6208320;22;20679;-63
2024/02/08 01:20:00;;;;;;;19.40;12.35;;;;;;;7.25;100.00;97846.72;6203190;22;20015;-66
2024/02/08 01:22:26;;;;;;;20.02;12.60;;;;;;;7.35;100.00;97847.47;6232448;22;20094;-64
2024/02/08 01:24:52;;;;;;;20.35;12.50;;;;;;;7.36;100.00;97835.38;6204074;22;20431;-64
2024/02/08 01:27:23;;;;;;;18.90;12.88;;;;;;;7.21;100.00;97837.59;6204275;22;20693;-64
2024/02/08 01:29:53;;;;;;;19.27;12.68;;;;;;;7.35;100.00;97836.31;6202457;22;20014;-63
2024/02/08 01:32:23;;;;;;;19.35;12.70;;;;;;;7.00;100.00;97783.53;6231795;22;20063;-64
2024/02/08 01:34:49;;;;;;;23.50;12.52;;;;;;;7.35;100.00;97834.56;6232244;22;20015;-63
2024/02/08 01:37:15;;;;;;;20.05;13.57;;;;;;;7.29;100.00;97832.53;6227849;22;20082;-64
2024/02/08 01:39:45;;;;;;;24.13;13.65;;;;;;;7.26;100.00;97831.03;6231023;22;20391;-63
2024/02/08 01:42:16;;;;;;;21.15;13.13;;;;;;;7.30;100.00;97826.41;6203099;22;20008;-64
2024/02/08 01:44:55;;;;;;;22.70;14.23;;;;;;;7.43;100.00;97826.91;6205578;22;20788;-64
2024/02/08 01:47:21;;;;;;;22.83;12.82;;;;;;;7.22;100.00;97823.72;6232062;22;20011;-64
2024/02/08 01:49:49;;;;;;;19.70;13.25;;;;;;;6.91;100.00;97780.03;6234649;22;20039;-63
2024/02/08 01:52:21;;;;;;;19.83;13.57;;;;;;;7.02;100.00;97825.56;6203611;22;20069;-63
2024/02/08 01:54:48;;;;;;;18.63;12.77;;;;;;;6.58;100.00;97782.16;6232060;22;20019;-64
2024/02/08 01:57:14;;;;;;;21.50;13.23;;;;;;;6.88;100.00;97829.41;6228982;22;20030;-63
2024/02/08 01:59:41;;;;;;;20.23;12.48;;;;;;;6.87;100.00;97825.22;6231537;22;20031;-63
2024/02/08 02:02:07;;;;;;;19.65;12.35;;;;;;;6.96;100.00;97811.44;6201263;22;20054;-64
2024/02/08 02:04:36;;;;;;;19.10;12.52;;;;;;;6.99;100.00;97811.16;6208316;22;20027;-63
2024/02/08 02:07:03;;;;;;;19.13;12.50;;;;;;;7.09;100.00;97822.28;6229587;22;19999;-65
2024/02/08 02:09:30;;;;;;;20.10;12.90;;;;;;;6.91;100.00;97809.25;6234650;22;20010;-61
2024/02/08 02:12:18;;;;;;;22.50;13.25;;;;;;;6.80;100.00;97812.03;6206844;22;20670;-62
2024/02/08 02:14:44;;;;;;;18.50;12.90;;;;;;;6.82;100.00;97807.53;6207662;22;20015;-64
2024/02/08 02:17:16;;;;;;;18.83;12.90;;;;;;;6.89;100.00;97800.03;6234203;22;20012;-63
2024/02/08 02:19:42;;;;;;;20.10;13.55;;;;;;;7.06;100.00;97803.66;6231300;22;20012;-66
2024/02/08 02:22:10;;;;;;;16.92;12.32;;;;;;;7.01;100.00;97791.16;6233501;22;20015;-62
2024/02/08 02:24:36;;;;;;;18.73;12.27;;;;;;;7.12;100.00;97790.16;6229353;22;20008;-61
2024/02/08 02:27:04;;;;;;;18.80;12.48;;;;;;;7.23;100.00;97782.22;6207976;22;20046;-62
2024/02/08 02:29:31;;;;;;;17.90;12.45;;;;;;;7.30;100.00;97774.69;6206467;22;20008;-66
2024/02/08 02:31:59;;;;;;;18.33;12.23;;;;;;;7.24;100.00;97768.31;6203506;22;20014;-62
2024/02/08 02:34:30;;;;;;;17.08;12.05;;;;;;;7.07;100.00;97776.84;6208999;22;20011;-63
2024/02/08 02:36:58;;;;;;;19.33;12.77;;;;;;;6.99;100.00;97768.97;6232693;22;20292;-65
2024/02/08 02:39:25;;;;;;;18.45;12.95;;;;;;;6.86;100.00;97759.81;6207166;22;20024;-63
2024/02/08 02:41:54;;;;;;;19.30;12.18;;;;;;;6.98;100.00;97764.78;6206520;22;20007;-63
2024/02/08 02:44:22;;;;;;;20.60;12.80;;;;;;;7.02;100.00;97774.69;6227323;22;20045;-62
2024/02/08 02:46:49;;;;;;;19.90;12.43;;;;;;;6.94;100.00;97761.66;6207352;22;20008;-63
2024/02/08 02:49:17;;;;;;;19.98;12.55;;;;;;;6.76;100.00;97764.19;6228130;22;20004;-65
2024/02/08 02:51:48;;;;;;;18.55;12.20;;;;;;;6.69;100.00;97755.34;6207322;22;20401;-62
2024/02/08 02:54:14;;;;;;;19.95;12.55;;;;;;;6.60;100.00;97751.03;6230660;22;20011;-63
2024/02/08 02:56:43;;;;;;;18.80;13.07;;;;;;;6.61;100.00;97761.25;6232984;22;20087;-62
2024/02/08 02:59:14;;;;;;;16.63;11.93;;;;;;;6.67;100.00;97757.28;6229393;22;20023;-63
2024/02/08 03:01:42;;;;;;;18.83;12.32;;;;;;;6.73;100.00;97773.03;6229891;22;20007;-64
2024/02/08 03:04:10;;;;;;;19.00;11.25;;;;;;;6.81;100.00;97756.81;6205656;22;20012;-64
2024/02/08 03:06:40;;;;;;;17.48;11.10;;;;;;;6.68;100.00;97748.56;6206556;22;20004;-64
2024/02/08 03:09:15;;;;;;;18.95;12.15;;;;;;;6.74;100.00;97769.47;6232133;22;20034;-61
2024/02/08 03:11:45;;;;;;;17.50;11.13;;;;;;;6.64;100.00;97758.34;6229776;22;20470;-62
2024/02/08 03:14:10;;;;;;;18.08;11.60;;;;;;;6.46;100.00;97719.56;6207454;22;20004;-61
2024/02/08 03:16:41;;;;;;;20.17;12.30;;;;;;;6.81;100.00;97756.81;6231391;22;20619;-62
2024/02/08 03:19:06;;;;;;;18.45;11.90;;;;;;;6.88;100.00;97763.06;6234774;22;20036;-62
2024/02/08 03:21:40;;;;;;;19.20;12.05;;;;;;;6.77;100.00;97752.88;6207510;22;20096;-62
2024/02/08 03:24:08;;;;;;;19.48;11.95;;;;;;;6.93;100.00;97747.91;6235133;22;20004;-63
2024/02/08 03:26:43;;;;;;;18.83;11.63;;;;;;;7.04;100.00;97751.28;6203525;22;20039;-62
2024/02/08 03:29:12;;;;;;;15.85;10.75;;;;;;;7.08;100.00;97760.38;6205767;22;20010;-62
2024/02/08 03:31:52;;;;;;;17.38;11.00;;;;;;;7.09;100.00;97756.84;6231188;22;20677;-67
2024/02/08 03:34:23;;;;;;;;;;;;;;;6.95;100.00;97752.94;6201680;22;20040;-67
2024/02/08 03:36:56;;;;;;;19.02;10.57;;;;;;;6.91;100.00;97754.19;6208303;22;19911;-66
2024/02/08 03:39:27;;;;;;;15.65;10.00;;;;;;;6.91;100.00;97744.66;6206810;22;20505;-61
2024/02/08 03:42:06;;;;;;;17.23;11.43;;;;;;;6.89;100.00;97754.31;6208363;22;20016;-63
2024/02/08 03:44:33;;;;;;;20.27;11.60;;;;;;;6.84;100.00;97755.72;6233325;22;20003;-62
2024/02/08 03:47:04;;;;;;;19.02;11.40;;;;;;;6.59;100.00;97750.22;6204387;22;20031;-63
2024/02/08 03:49:33;;;;;;;21.35;12.50;;;;;;;6.54;100.00;97750.63;6233348;22;20090;-62
2024/02/08 03:51:58;;;;;;;16.00;11.20;;;;;;;6.63;100.00;97736.06;6205477;22;20336;-62
2024/02/08 03:54:30;;;;;;;17.20;11.35;;;;;;;6.67;100.00;97745.16;6231473;22;20131;-63
2024/02/08 03:56:55;;;;;;;21.95;11.57;;;;;;;6.50;100.00;97753.66;6231688;22;20769;-63
2024/02/08 03:59:30;;;;;;;16.90;10.88;;;;;;;6.44;100.00;97759.38;6205417;22;20058;-66
2024/02/08 04:02:09;;;;;;;15.95;11.90;;;;;;;6.40;100.00;97751.06;6208724;22;20042;-63
2024/02/08 04:04:52;;;;;;;16.70;10.63;;;;;;;6.25;100.00;97749.91;6205700;22;20011;-65
2024/02/08 04:08:22;;;;;;;17.63;10.73;;;;;;;6.08;100.00;97695.44;6208564;22;20007;-65
2024/02/08 04:10:19;;;;;;;19.35;11.55;;;;;;;6.39;100.00;97767.53;6217155;22;20016;-65
2024/02/08 04:53:31;;;;;;;18.85;11.20;;;;;;;6.40;100.00;97761.41;6236644;22;20037;-64
2024/02/08 04:53:57;;;;;;;15.68;9.90;;;;;;;6.43;100.00;97739.66;6257572;22;20022;-63
2024/02/08 04:56:28;;;;;;;16.90;9.65;;;;;;;6.25;100.00;97696.47;6229322;22;20012;-64
2024/02/08 04:58:54;;;;;;;16.60;10.15;;;;;;;6.61;100.00;97740.56;6208786;22;20022;-63
2024/02/08 05:01:21;;;;;;;19.17;10.75;;;;;;;6.69;100.00;97742.44;6229447;22;20012;-63
2024/02/08 05:03:48;;;;;;;18.35;8.98;;;;;;;6.59;100.00;97744.22;6232208;22;20016;-64
2024/02/08 05:06:18;;;;;;;18.42;10.30;;;;;;;6.65;100.00;97752.25;6200686;22;20068;-64
2024/02/08 05:08:59;;;;;;;16.85;9.88;;;;;;;6.41;100.00;97747.56;6230670;22;20015;-66
2024/02/08 05:11:28;;;;;;;14.50;9.35;;;;;;;6.33;100.00;97750.00;6233419;22;20008;-65
2024/02/08 05:14:00;;;;;;;15.45;9.63;;;;;;;6.36;100.00;97754.91;6230395;22;20007;-66
2024/02/08 05:16:31;;;;;;;14.65;9.65;;;;;;;6.41;100.00;97746.75;6206850;22;20003;-64
2024/02/08 05:18:56;;;;;;;15.82;8.85;;;;;;;6.42;100.00;97745.78;6207011;22;20012;-63
2024/02/08 05:21:30;;;;;;;17.58;9.55;;;;;;;6.34;100.00;97749.06;6207922;22;20065;-64
2024/02/08 05:23:58;;;;;;;14.05;9.00;;;;;;;6.26;100.00;97743.75;6209591;22;20011;-63
2024/02/08 05:26:25;;;;;;;18.15;9.48;;;;;;;6.40;100.00;97755.44;6208324;22;20386;-64
2024/02/08 05:28:54;;;;;;;14.73;9.52;;;;;;;6.24;100.00;97741.34;6209503;22;20406;-63
2024/02/08 05:31:19;;;;;;;16.17;9.27;;;;;;;6.33;100.00;97745.69;6229476;22;20081;-63
2024/02/08 05:33:45;;;;;;;14.30;9.00;;;;;;;5.99;100.00;97691.13;6234422;22;20019;-63
2024/02/08 05:36:12;;;;;;;14.38;9.60;;;;;;;6.39;100.00;97743.47;6231151;22;20015;-63
2024/02/08 05:38:42;;;;;;;15.90;9.68;;;;;;;6.46;100.00;97754.88;6208205;22;20019;-63
2024/02/08 05:41:15;;;;;;;16.13;9.40;;;;;;;6.52;100.00;97752.56;6234016;22;20011;-64
2024/02/08 05:43:47;;;;;;;16.00;9.40;;;;;;;6.51;100.00;97755.28;6201864;22;20488;-64
2024/02/08 05:46:25;;;;;;;16.02;10.02;;;;;;;6.45;100.00;97754.06;6235028;22;20027;-64
2024/02/08 05:49:03;;;;;;;15.30;8.93;;;;;;;6.10;100.00;97687.56;6208381;22;20015;-64
2024/02/08 05:51:33;;;;;;;15.25;9.73;;;;;;;6.46;100.00;97747.97;6209968;22;20007;-63
2024/02/08 05:54:06;;;;;;;16.10;9.82;;;;;;;6.56;100.00;97747.13;6232411;22;20043;-66
2024/02/08 05:56:33;;;;;;;15.30;9.30;;;;;;;6.44;100.00;97747.25;6206220;22;20016;-66
2024/02/08 05:59:05;;;;;;;16.52;9.45;;;;;;;6.32;100.00;97746.63;6231855;22;20103;-63
2024/02/08 06:01:43;;;;;;;14.85;8.85;;;;;;;6.26;100.00;97739.44;6229764;22;20007;-64
2024/02/08 06:04:12;;;;;;;15.90;8.80;;;;;;;6.31;100.00;97742.38;6235517;22;20018;-61
2024/02/08 06:06:48;;;;;;;15.30;9.35;;;;;;;6.29;100.00;97748.66;6207505;22;20015;-63
2024/02/08 06:09:37;;;;;;;17.15;9.50;;;;;;;6.15;100.00;97752.47;6233664;22;20093;-62
2024/02/08 06:12:08;;;;;;;13.85;8.65;;;;;;;6.24;100.00;97751.66;6236061;22;20945;-62
2024/02/08 06:14:38;;;;;;;15.25;8.30;;;;;;;6.38;100.00;97754.75;6208229;22;20045;-65
2024/02/08 06:17:07;;;;;;;15.68;8.82;;;;;;;6.39;100.00;97751.22;6235941;22;20054;-63
2024/02/08 06:19:50;;;;;;;14.30;9.20;;;;;;;6.39;100.00;97743.47;6203962;22;20016;-63
2024/02/08 06:22:25;;;;;;;14.88;9.00;;;;;;;6.48;100.00;97751.22;6235302;22;20439;-64
2024/02/08 06:24:50;;;;;;;13.25;8.90;;;;;;;6.49;100.00;97759.75;6207183;22;20007;-62
2024/02/08 06:27:33;;;;;;;14.05;8.90;;;;;;;6.37;100.00;97760.88;6206704;22;20093;-63
2024/02/08 06:30:08;;;;;;;17.00;9.45;;;;;;;6.37;100.00;97764.28;6208218;22;20336;-63
2024/02/08 06:35:11;;;;;;;13.68;9.18;;;;;;;6.42;100.00;97772.41;6234876;22;20007;-62
2024/02/08 06:37:53;;;;;;;13.50;9.25;;;;;;;6.17;100.00;97719.63;6232950;22;20065;-62
2024/02/08 06:40:36;;;;;;;15.73;9.15;;;;;;;6.39;100.00;97774.44;6192310;23;20028;-63
2024/02/08 07:37:55;;;;;;;14.68;9.10;;;;;;;6.27;100.00;97797.84;6204438;23;20103;-63
2024/02/08 07:40:24;;;;;;;16.88;8.73;;;;;;;5.90;100.00;97759.00;6198916;23;20323;-65
2024/02/08 07:42:52;;;;;;;14.48;9.15;;;;;;;6.26;100.00;97816.03;6198383;22;20016;-66
2024/02/08 07:45:29;;;;;;;14.40;8.95;;;;;;;6.32;100.00;97800.84;6233139;22;20336;-65
2024/02/08 07:48:08;;;;;;;15.25;8.45;;;;;;;6.45;100.00;97825.56;6206941;22;20016;-63
2024/02/08 07:50:44;;;;;;;15.00;8.98;;;;;;;6.47;100.00;97828.81;6207474;22;20065;-66
2024/02/08 07:53:34;;;;;;;14.68;8.82;;;;;;;6.57;100.00;97837.38;6231033;22;20384;-63
2024/02/08 07:56:29;;;;;;;15.43;8.65;;;;;;;6.64;100.00;97840.22;6206919;22;20128;-65
2024/02/08 07:59:03;;;;;;;12.82;8.48;;;;;;;6.73;100.00;97854.88;6233623;22;20911;-67
2024/02/08 08:01:32;;;;;;;16.48;8.57;;;;;;;6.66;100.00;97826.22;6229649;22;20356;-68
2024/02/08 08:03:58;;;;;;;13.05;8.60;;;;;;;6.40;100.00;97782.06;6206018;22;20387;-64
2024/02/08 08:06:34;;;;;;;15.07;8.95;;;;;;;6.66;100.00;97841.72;6230735;22;20003;-65
2024/02/08 08:09:18;;;;;;;14.43;8.90;;;;;;;6.73;100.00;97832.47;6234936;22;20499;-65
2024/02/08 08:11:51;;;;;;;15.55;8.75;;;;;;;6.45;100.00;97835.91;6228832;22;20008;-64
2024/02/08 08:19:38;;;;;;;17.13;9.10;;;;;;;6.63;100.00;97839.41;6227356;22;20015;-65
2024/02/08 08:22:50;;;;;;;15.23;8.57;;;;;;;6.67;100.00;97848.50;6225565;22;20015;-65
2024/02/08 08:27:47;;;;;;;13.93;9.10;;;;;;;6.36;100.00;97847.84;6224374;22;20015;-65
2024/02/08 08:30:27;;;;;;;16.40;8.85;;;;;;;6.48;100.00;97854.50;6201468;22;20015;-66
2024/02/08 08:40:48;;;;;;;15.27;9.15;;;;;;;6.64;100.00;97863.47;6228514;22;20499;-66
2024/02/08 08:43:22;;;;;;;14.75;9.27;;;;;;;6.51;100.00;97840.50;6194325;22;20094;-66
2024/02/08 08:45:59;;;;;;;14.50;9.05;;;;;;;6.52;100.00;97839.56;6223235;22;20008;-66
2024/02/08 08:48:30;;;;;;;13.90;8.88;;;;;;;6.46;100.00;97834.94;6224904;22;20035;-66
2024/02/08 08:51:10;;;;;;;17.30;9.35;;;;;;;6.52;100.00;97831.81;6199450;22;20810;-64
2024/02/08 08:53:43;;;;;;;16.73;9.15;;;;;;;6.57;100.00;97846.88;6200908;22;20103;-66
2024/02/08 08:56:10;;;;;;;17.73;9.68;;;;;;;6.61;100.00;97851.66;6201382;22;20491;-65
2024/02/08 08:58:39;;;;;;;17.13;9.43;;;;;;;6.44;100.00;97842.00;6225114;22;20035;-65
2024/02/08 09:01:21;;;;;;;14.45;9.30;;;;;;;6.56;100.00;97871.91;6201854;22;20094;-65
2024/02/08 09:04:09;;;;;;;12.52;8.50;;;;;;;6.61;100.00;97872.31;6249563;22;20070;-65
2024/02/08 09:06:34;;;;;;;14.63;8.95;;;;;;;6.81;100.00;97867.94;6205287;22;20012;-65
2024/02/08 09:09:27;;;;;;;14.85;9.68;;;;;;;6.89;100.00;97849.94;6224160;22;20443;-64
2024/02/08 09:11:45;;;;;;;18.08;10.15;;;;;;;6.87;100.00;97845.88;6230301;22;20016;-67
2024/02/08 09:14:16;;;;;;;15.60;9.85;;;;;;;6.63;100.00;97781.75;6201193;22;20007;-63
2024/02/08 09:16:52;;;;;;;15.10;8.65;;;;;;;6.88;100.00;97821.66;6194336;23;20119;-66
2024/02/08 09:19:27;;;;;;;14.45;9.20;;;;;;;6.83;100.00;97795.44;6199539;23;20027;-66
2024/02/08 09:21:53;;;;;;;15.93;9.73;;;;;;;7.16;100.00;97817.34;6199228;22;20051;-66
2024/02/08 09:24:19;;;;;;;17.42;9.50;;;;;;;7.27;100.00;97822.34;6200210;22;20600;-65
2024/02/08 09:29:38;;;;;;;15.73;9.40;;;;;;;7.50;100.00;97809.00;6228148;22;20026;-66
2024/02/08 09:32:14;;;;;;;14.00;9.15;;;;;;;7.51;100.00;97815.81;6228722;22;20447;-68
2024/02/08 09:34:40;;;;;;;17.30;10.55;;;;;;;7.18;100.00;97784.41;6202145;22;20443;-64
2024/02/08 09:37:08;;;;;;;17.77;10.90;;;;;;;7.34;100.00;97845.88;6228391;22;20018;-67
2024/02/08 09:42:26;;;;;;;14.68;9.18;;;;;;;6.91;100.00;97785.19;6215834;22;20137;-66
2024/02/08 09:44:56;;;;;;;15.10;9.70;;;;;;;6.88;100.00;97788.06;6227541;22;20423;-65
2024/02/08 09:47:31;;;;;;;15.77;9.63;;;;;;;7.16;100.00;97842.41;6226077;22;20004;-65
2024/02/08 09:50:00;;;;;;;16.17;9.07;;;;;;;7.20;100.00;97844.56;6228014;22;20035;-64
2024/02/08 09:52:34;;;;;;;14.82;9.43;;;;;;;7.18;100.00;97845.66;6196004;22;20003;-65
2024/02/08 09:55:18;;;;;;;17.38;10.00;;;;;;;7.20;100.00;97813.53;6226232;22;20015;-68
2024/02/08 09:57:47;;;;;;;16.08;9.75;;;;;;;7.36;100.00;97853.50;6203213;22;20008;-66
2024/02/08 10:01:20;;;;;;;14.48;9.00;;;;;;;7.43;100.00;97850.19;6200315;22;20050;-65
2024/02/08 10:03:06;;;;;;;17.17;9.90;;;;;;;7.58;100.00;97841.94;6213600;22;20115;-65
2024/02/08 10:05:57;;;;;;;16.17;9.45;;;;;;;7.61;100.00;97818.34;6227282;22;20008;-66
2024/02/08 10:08:28;;;;;;;15.45;9.05;;;;;;;7.82;100.00;97844.78;6202739;22;20404;-64
2024/02/08 10:14:02;;;;;;;16.45;9.15;;;;;;;7.70;100.00;97804.53;6141776;23;20500;-66
2024/02/08 10:16:43;;;;;;;14.45;9.30;;;;;;;7.76;100.00;97803.97;6157038;23;20047;-66
2024/02/08 10:19:28;;;;;;;15.30;9.23;;;;;;;8.02;100.00;97858.41;6158306;23;20140;-65
2024/02/08 10:21:57;;;;;;;14.50;9.93;;;;;;;7.74;100.00;97862.81;6160728;23;20013;-65
2024/02/08 10:27:23;;;;;;;15.45;9.02;;;;;;;7.60;100.00;97863.31;6114728;23;20021;-65
2024/02/08 10:30:05;;;;;;;14.13;9.60;;;;;;;7.59;100.00;97840.97;6128559;23;20595;-65
2024/02/08 10:32:31;;;;;;;15.55;9.88;;;;;;;7.81;100.00;97844.94;6134084;23;20017;-66
2024/02/08 10:35:13;;;;;;;14.80;8.70;;;;;;;7.96;100.00;97840.06;6153784;23;20189;-65
2024/02/08 10:38:07;;;;;;;15.13;9.20;;;;;;;7.96;100.00;97834.88;6158475;23;20020;-65
2024/02/08 10:40:34;;;;;;;14.82;8.35;;;;;;;7.90;99.88;97812.97;6156482;23;20077;-66
2024/02/08 10:43:16;;;;;;;16.38;9.35;;;;;;;8.16;99.33;97833.81;6158533;23;20096;-65
2024/02/08 10:45:49;;;;;;;13.18;8.90;;;;;;;8.21;98.90;97822.97;6219650;22;20835;-64
2024/02/08 10:48:16;;;;;;;15.05;9.15;;;;;;;8.36;96.65;97823.25;6224436;22;20245;-66
2024/02/08 10:50:46;;;;;;;15.57;9.57;;;;;;;8.39;95.51;97810.81;6201888;22;20034;-64
2024/02/08 10:56:13;;;;;;;14.05;8.35;;;;;;;8.54;94.21;97795.59;6229497;22;20022;-65
2024/02/08 10:59:09;;;;;;;14.27;8.07;;;;;;;8.38;94.01;97744.44;6221485;22;20038;-66
2024/02/08 11:04:18;;;;;;;13.75;8.20;;;;;;;8.91;91.96;97770.34;6217463;22;20046;-64
2024/02/08 11:07:22;;;;;;;17.10;8.60;;;;;;;9.01;91.12;97766.69;6224863;22;20054;-66
2024/02/08 11:09:52;;;;;;;16.65;9.52;;;;;;;9.05;92.62;97756.81;6228902;22;20031;-66
2024/02/08 11:12:23;;;;;;;16.85;9.38;;;;;;;9.07;92.13;97754.88;6226260;22;20008;-65
2024/02/08 11:15:00;;;;;;;16.25;9.10;;;;;;;9.23;92.42;97759.31;6221367;22;20317;-65
2024/02/08 11:17:32;;;;;;;15.05;9.18;;;;;;;9.26;91.38;97746.03;6199677;22;20012;-66
2024/02/08 11:19:58;;;;;;;17.00;9.80;;;;;;;9.45;91.84;97731.16;6225569;22;20007;-67
2024/02/08 11:22:57;;;;;;;14.38;8.90;;;;;;;9.51;93.39;97735.72;6221271;22;20502;-67
2024/02/08 11:25:23;;;;;;;17.15;9.18;;;;;;;9.59;92.22;97744.34;6252511;22;20111;-63
2024/02/08 11:27:52;;;;;;;15.18;9.18;;;;;;;9.76;91.91;97747.75;6200046;22;20008;-64
2024/02/08 11:30:34;;;;;;;16.55;9.50;;;;;;;9.85;91.48;97745.19;6199001;22;20014;-65
2024/02/08 11:33:04;;;;;;;17.77;10.30;;;;;;;9.82;91.34;97721.16;6201755;22;20582;-65
2024/02/08 11:35:35;;;;;;;;;;;;;;;10.18;90.14;97761.59;6199689;22;20503;-66
2024/02/08 11:38:09;;;;;;;14.27;9.23;;;;;;;10.29;90.57;97763.03;6202513;22;19914;-67
2024/02/08 11:40:37;;;;;;;17.33;10.68;;;;;;;10.23;89.60;97729.94;6222427;22;20050;-64
2024/02/08 11:43:06;;;;;;;16.15;10.25;;;;;;;10.44;87.46;97747.63;6201779;22;20019;-65
2024/02/08 11:45:35;;;;;;;17.33;10.20;;;;;;;10.58;86.28;97750.34;6223357;22;20014;-65
2024/02/08 11:48:04;;;;;;;14.35;9.00;;;;;;;10.66;85.98;97749.53;6199605;22;20633;-65
2024/02/08 11:50:36;;;;;;;16.73;10.07;;;;;;;10.74;85.33;97746.09;6252150;22;20004;-63
2024/02/08 11:53:06;;;;;;;16.17;9.93;;;;;;;10.76;84.30;97742.34;6199908;22;20016;-65
2024/02/08 11:55:35;;;;;;;14.95;9.77;;;;;;;10.63;84.19;97697.06;6227677;22;20085;-63
2024/02/08 11:58:05;;;;;;;17.48;9.95;;;;;;;10.87;83.81;97746.38;6225514;22;20012;-64
2024/02/08 12:00:31;;;;;;;14.23;9.15;;;;;;;10.97;83.84;97738.41;6198714;22;20018;-66
2024/02/08 12:03:01;;;;;;;15.38;8.88;;;;;;;10.81;83.58;97708.06;6223833;22;20039;-64
2024/02/08 12:05:33;;;;;;;16.25;9.10;;;;;;;11.02;82.35;97715.28;6201178;22;20402;-65
2024/02/08 12:08:25;;;;;;;15.15;8.30;;;;;;;11.13;82.18;97717.53;6202190;22;20008;-65
2024/02/08 12:10:55;;;;;;;14.77;8.15;;;;;;;11.15;81.77;97699.13;6196728;22;20012;-64
2024/02/08 12:13:25;;;;;;;11.77;7.57;;;;;;;10.91;81.42;97661.84;6201267;22;20023;-64
2024/02/08 12:15:57;;;;;;;12.60;7.95;;;;;;;11.23;81.14;97716.50;6252153;22;20388;-67
2024/02/08 12:18:29;;;;;;;18.63;8.70;;;;;;;10.90;80.90;97662.84;6200975;22;20008;-66
2024/02/08 12:21:01;;;;;;;11.77;8.13;;;;;;;11.27;81.02;97712.56;6197380;22;20475;-66
2024/02/08 12:23:30;;;;;;;15.82;7.28;;;;;;;11.33;80.55;97709.28;6225719;22;20232;-63
2024/02/08 12:26:06;;;;;;;12.95;6.75;;;;;;;11.19;80.07;97690.00;6227734;22;20039;-64
2024/02/08 12:28:35;;;;;;;12.95;8.02;;;;;;;11.14;80.35;97669.69;6200969;22;20008;-63
2024/02/08 12:31:01;;;;;;;14.40;8.13;;;;;;;11.43;80.37;97693.47;6225822;22;20200;-66
2024/02/08 12:33:32;;;;;;;12.40;7.90;;;;;;;11.49;79.85;97696.16;6226522;22;20008;-67
2024/02/08 12:35:58;;;;;;;13.82;8.30;;;;;;;11.57;80.03;97700.50;6201505;22;20057;-64
2024/02/08 12:38:24;;;;;;;17.55;8.93;;;;;;;11.37;79.63;97652.47;6225193;22;20011;-65
2024/02/08 12:40:51;;;;;;;17.77;8.77;;;;;;;11.54;79.61;97680.84;6199799;22;20733;-65
2024/02/08 12:43:19;;;;;;;16.15;9.13;;;;;;;11.59;79.25;97688.13;6225255;22;20099;-63
2024/02/08 12:45:52;;;;;;;17.60;9.93;;;;;;;11.54;79.41;97677.44;6197527;22;20693;-64
2024/02/08 12:48:20;;;;;;;17.80;9.30;;;;;;;11.54;79.32;97665.22;6225371;22;20748;-65
2024/02/08 12:50:51;;;;;;;18.02;9.18;;;;;;;11.34;79.08;97620.63;6220202;22;20341;-67
2024/02/08 12:53:21;;;;;;;14.65;9.27;;;;;;;11.57;79.33;97648.44;6201061;22;20535;-64
2024/02/08 12:55:47;;;;;;;;;;;;;;;11.58;79.33;97646.66;6226046;22;20110;-65
2024/02/08 12:58:18;;;;;;;15.45;9.27;;;;;;;11.59;79.08;97619.63;6199034;22;20358;-63
2024/02/08 13:01:04;;;;;;;16.45;9.70;;;;;;;11.65;78.68;97627.56;6227578;22;20225;-65
2024/02/08 13:03:39;;;;;;;15.40;8.88;;;;;;;11.63;78.40;97623.50;6222044;22;20023;-65
2024/02/08 13:06:12;;;;;;;16.92;9.85;;;;;;;11.74;78.97;97636.09;6199778;22;20436;-63
2024/02/08 13:08:37;;;;;;;15.82;10.38;;;;;;;11.80;78.32;97630.19;6201239;22;20011;-67
2024/02/08 13:11:06;;;;;;;15.65;9.98;;;;;;;11.76;77.47;97635.94;6224998;22;20383;-66
2024/02/08 13:13:34;;;;;;;18.95;10.18;;;;;;;11.73;78.30;97637.88;6202042;22;20109;-67
2024/02/08 13:16:08;;;;;;;16.23;10.32;;;;;;;11.83;77.80;97629.84;6199441;22;20306;-65
2024/02/08 13:18:38;;;;;;;17.17;10.52;;;;;;;11.53;77.39;97589.88;6201053;22;20134;-65
2024/02/08 13:21:04;;;;;;;16.35;9.75;;;;;;;11.83;77.43;97626.44;6253471;22;20015;-63
2024/02/08 13:23:34;;;;;;;16.08;9.80;;;;;;;11.98;78.08;97609.06;6194977;22;20008;-64
2024/02/08 13:26:00;;;;;;;16.02;9.30;;;;;;;11.98;77.27;97608.25;6204644;22;20114;-63
2024/02/08 13:28:26;;;;;;;17.05;10.20;;;;;;;11.90;76.92;97614.31;6203777;22;20802;-66
2024/02/08 13:30:57;;;;;;;15.52;9.43;;;;;;;11.89;77.58;97610.09;6233054;22;20008;-62
2024/02/08 13:33:28;;;;;;;14.73;9.55;;;;;;;11.74;77.40;97602.25;6232677;22;20061;-64
2024/02/08 13:35:53;;;;;;;15.98;8.70;;;;;;;11.79;77.09;97620.78;6209167;22;20011;-64
2024/02/08 13:38:22;;;;;;;17.75;9.93;;;;;;;11.73;77.56;97613.66;6229819;22;20073;-64
2024/02/08 13:40:52;;;;;;;18.90;8.90;;;;;;;11.89;77.23;97629.13;6233096;22;20004;-66
2024/02/08 13:43:19;;;;;;;16.13;9.18;;;;;;;11.80;76.81;97626.78;6233159;22;20008;-63
2024/02/08 13:45:46;;;;;;;15.05;9.35;;;;;;;11.83;77.28;97639.47;6207782;22;20030;-62
2024/02/08 13:48:18;;;;;;;17.63;10.00;;;;;;;11.83;77.54;97647.28;6234279;22;21056;-63
2024/02/08 13:50:52;;;;;;;17.48;9.13;;;;;;;11.82;77.05;97638.63;6204652;22;20015;-64
2024/02/08 13:53:21;;;;;;;13.77;8.02;;;;;;;11.58;77.64;97598.00;6205788;22;20195;-65